sensor_id;sensor_type;location;lat;lon;timestamp;P1;durP1;ratioP1;P2;durP2;ratioP2
3629;SDS011;1831;53.626;10.012;2022-09-09T00:00:12;28.70;;;23.27;;
3629;SDS011;1831;53.626;10.012;2022-09-09T00:02:40;30.50;;;24.77;;
3629;SDS011;1831;53.626;10.012;2022-09-09T00:05:14;27.67;;;22.37;;
3629;SDS011;1831;53.626;10.012;2022-09-09T00:07:52;35.57;;;25.90;;
3629;SDS011;1831;53.626;10.012;2022-09-09T00:10:22;33.60;;;27.90;;
3629;SDS011;1831;53.626;10.012;2022-09-09T00:12:55;33.33;;;26.60;;
3629;SDS011;1831;53.626;10.012;2022-09-09T00:15:28;36.70;;;29.30;;
3629;SDS011;1831;53.626;10.012;2022-09-09T00:18:03;35.53;;;28.63;;
3629;SDS011;1831;53.626;10.012;2022-09-09T00:20:42;32.80;;;26.50;;
3629;SDS011;1831;53.626;10.012;2022-09-09T00:23:13;35.57;;;27.73;;
3629;SDS011;1831;53.626;10.012;2022-09-09T00:25:46;41.63;;;30.97;;
3629;SDS011;1831;53.626;10.012;2022-09-09T00:28:20;38.70;;;30.50;;
3629;SDS011;1831;53.626;10.012;2022-09-09T00:30:51;38.87;;;30.43;;
3629;SDS011;1831;53.626;10.012;2022-09-09T00:33:19;38.97;;;30.90;;
3629;SDS011;1831;53.626;10.012;2022-09-09T00:35:51;39.40;;;32.10;;
3629;SDS011;1831;53.626;10.012;2022-09-09T00:38:24;42.90;;;33.23;;
3629;SDS011;1831;53.626;10.012;2022-09-09T00:40:56;44.33;;;32.67;;
3629;SDS011;1831;53.626;10.012;2022-09-09T00:43:29;42.17;;;33.80;;
3629;SDS011;1831;53.626;10.012;2022-09-09T00:46:01;40.67;;;31.60;;
3629;SDS011;1831;53.626;10.012;2022-09-09T00:48:51;42.97;;;33.87;;
3629;SDS011;1831;53.626;10.012;2022-09-09T00:51:27;47.47;;;34.70;;
3629;SDS011;1831;53.626;10.012;2022-09-09T00:54:14;48.70;;;36.80;;
3629;SDS011;1831;53.626;10.012;2022-09-09T00:56:55;52.77;;;38.63;;
3629;SDS011;1831;53.626;10.012;2022-09-09T00:59:32;47.70;;;35.07;;
3629;SDS011;1831;53.626;10.012;2022-09-09T01:02:07;48.70;;;37.10;;
3629;SDS011;1831;53.626;10.012;2022-09-09T01:04:44;52.27;;;37.27;;
3629;SDS011;1831;53.626;10.012;2022-09-09T01:07:16;50.37;;;37.40;;
3629;SDS011;1831;53.626;10.012;2022-09-09T01:09:51;59.40;;;40.43;;
3629;SDS011;1831;53.626;10.012;2022-09-09T01:12:25;52.57;;;38.23;;
3629;SDS011;1831;53.626;10.012;2022-09-09T01:15:03;51.60;;;36.83;;
3629;SDS011;1831;53.626;10.012;2022-09-09T01:17:44;56.33;;;39.57;;
3629;SDS011;1831;53.626;10.012;2022-09-09T01:20:19;53.20;;;37.97;;
3629;SDS011;1831;53.626;10.012;2022-09-09T01:23:00;48.47;;;35.90;;
3629;SDS011;1831;53.626;10.012;2022-09-09T01:26:04;47.90;;;36.37;;
3629;SDS011;1831;53.626;10.012;2022-09-09T01:28:52;45.87;;;34.73;;
3629;SDS011;1831;53.626;10.012;2022-09-09T01:31:20;48.40;;;35.40;;
3629;SDS011;1831;53.626;10.012;2022-09-09T01:33:52;53.43;;;35.97;;
3629;SDS011;1831;53.626;10.012;2022-09-09T01:36:21;45.20;;;33.07;;
3629;SDS011;1831;53.626;10.012;2022-09-09T01:38:52;43.27;;;32.23;;
3629;SDS011;1831;53.626;10.012;2022-09-09T01:41:20;45.47;;;34.00;;
3629;SDS011;1831;53.626;10.012;2022-09-09T01:43:48;46.60;;;33.73;;
3629;SDS011;1831;53.626;10.012;2022-09-09T01:46:17;43.87;;;33.93;;
3629;SDS011;1831;53.626;10.012;2022-09-09T01:48:46;44.37;;;33.80;;
3629;SDS011;1831;53.626;10.012;2022-09-09T01:51:14;40.97;;;30.37;;
3629;SDS011;1831;53.626;10.012;2022-09-09T01:53:41;43.17;;;32.30;;
3629;SDS011;1831;53.626;10.012;2022-09-09T01:56:12;40.10;;;30.80;;
3629;SDS011;1831;53.626;10.012;2022-09-09T01:58:52;42.33;;;31.23;;
3629;SDS011;1831;53.626;10.012;2022-09-09T02:01:29;40.77;;;30.27;;
3629;SDS011;1831;53.626;10.012;2022-09-09T02:04:07;41.00;;;31.67;;
3629;SDS011;1831;53.626;10.012;2022-09-09T02:06:44;38.37;;;29.63;;
3629;SDS011;1831;53.626;10.012;2022-09-09T02:09:14;37.70;;;29.30;;
3629;SDS011;1831;53.626;10.012;2022-09-09T02:11:45;38.27;;;30.47;;
3629;SDS011;1831;53.626;10.012;2022-09-09T02:14:16;38.17;;;30.83;;
3629;SDS011;1831;53.626;10.012;2022-09-09T02:16:49;40.87;;;30.90;;
3629;SDS011;1831;53.626;10.012;2022-09-09T02:19:21;39.20;;;30.30;;
3629;SDS011;1831;53.626;10.012;2022-09-09T02:21:52;40.03;;;28.37;;
3629;SDS011;1831;53.626;10.012;2022-09-09T02:24:22;39.20;;;30.67;;
3629;SDS011;1831;53.626;10.012;2022-09-09T02:26:50;39.87;;;29.40;;
3629;SDS011;1831;53.626;10.012;2022-09-09T02:29:22;34.93;;;27.60;;
3629;SDS011;1831;53.626;10.012;2022-09-09T02:31:52;39.00;;;28.83;;
3629;SDS011;1831;53.626;10.012;2022-09-09T02:34:21;40.97;;;30.17;;
3629;SDS011;1831;53.626;10.012;2022-09-09T02:36:52;40.43;;;28.43;;
3629;SDS011;1831;53.626;10.012;2022-09-09T02:39:22;37.83;;;29.70;;
3629;SDS011;1831;53.626;10.012;2022-09-09T02:41:48;36.07;;;28.33;;
3629;SDS011;1831;53.626;10.012;2022-09-09T02:44:16;41.43;;;29.83;;
3629;SDS011;1831;53.626;10.012;2022-09-09T02:46:51;37.10;;;28.53;;
3629;SDS011;1831;53.626;10.012;2022-09-09T02:49:35;40.07;;;29.37;;
3629;SDS011;1831;53.626;10.012;2022-09-09T02:52:11;41.90;;;30.20;;
3629;SDS011;1831;53.626;10.012;2022-09-09T02:54:41;37.37;;;29.00;;
3629;SDS011;1831;53.626;10.012;2022-09-09T02:57:10;36.73;;;28.93;;
3629;SDS011;1831;53.626;10.012;2022-09-09T02:59:38;35.70;;;27.87;;
3629;SDS011;1831;53.626;10.012;2022-09-09T03:02:08;37.63;;;29.33;;
3629;SDS011;1831;53.626;10.012;2022-09-09T03:04:36;37.60;;;29.43;;
3629;SDS011;1831;53.626;10.012;2022-09-09T03:07:03;40.63;;;29.90;;
3629;SDS011;1831;53.626;10.012;2022-09-09T03:09:30;39.27;;;29.33;;
3629;SDS011;1831;53.626;10.012;2022-09-09T03:11:57;36.83;;;28.70;;
3629;SDS011;1831;53.626;10.012;2022-09-09T03:14:24;39.30;;;29.23;;
3629;SDS011;1831;53.626;10.012;2022-09-09T03:16:51;33.93;;;27.73;;
3629;SDS011;1831;53.626;10.012;2022-09-09T03:19:20;36.90;;;28.87;;
3629;SDS011;1831;53.626;10.012;2022-09-09T03:21:47;37.07;;;26.47;;
3629;SDS011;1831;53.626;10.012;2022-09-09T03:24:14;30.87;;;26.37;;
3629;SDS011;1831;53.626;10.012;2022-09-09T03:26:41;35.03;;;27.80;;
3629;SDS011;1831;53.626;10.012;2022-09-09T03:29:09;35.50;;;27.37;;
3629;SDS011;1831;53.626;10.012;2022-09-09T03:31:37;32.90;;;28.07;;
3629;SDS011;1831;53.626;10.012;2022-09-09T03:34:04;35.57;;;27.27;;
3629;SDS011;1831;53.626;10.012;2022-09-09T03:36:33;34.87;;;28.80;;
3629;SDS011;1831;53.626;10.012;2022-09-09T03:39:00;36.67;;;29.10;;
3629;SDS011;1831;53.626;10.012;2022-09-09T03:41:28;34.70;;;28.50;;
3629;SDS011;1831;53.626;10.012;2022-09-09T03:43:55;34.87;;;27.13;;
3629;SDS011;1831;53.626;10.012;2022-09-09T03:46:23;39.93;;;29.47;;
3629;SDS011;1831;53.626;10.012;2022-09-09T03:48:51;35.87;;;27.93;;
3629;SDS011;1831;53.626;10.012;2022-09-09T03:51:18;36.37;;;28.10;;
3629;SDS011;1831;53.626;10.012;2022-09-09T03:53:47;34.53;;;27.57;;
3629;SDS011;1831;53.626;10.012;2022-09-09T03:56:14;31.67;;;25.20;;
3629;SDS011;1831;53.626;10.012;2022-09-09T03:58:41;35.63;;;26.30;;
3629;SDS011;1831;53.626;10.012;2022-09-09T04:01:09;29.60;;;24.47;;
3629;SDS011;1831;53.626;10.012;2022-09-09T04:03:38;29.87;;;23.73;;
3629;SDS011;1831;53.626;10.012;2022-09-09T04:06:05;30.70;;;25.93;;
3629;SDS011;1831;53.626;10.012;2022-09-09T04:08:34;33.60;;;24.57;;
3629;SDS011;1831;53.626;10.012;2022-09-09T04:11:04;31.93;;;24.87;;
3629;SDS011;1831;53.626;10.012;2022-09-09T04:13:31;32.87;;;25.10;;
3629;SDS011;1831;53.626;10.012;2022-09-09T04:15:59;31.63;;;23.63;;
3629;SDS011;1831;53.626;10.012;2022-09-09T04:18:27;30.73;;;24.63;;
3629;SDS011;1831;53.626;10.012;2022-09-09T04:20:54;32.23;;;24.77;;
3629;SDS011;1831;53.626;10.012;2022-09-09T04:23:22;30.70;;;25.03;;
3629;SDS011;1831;53.626;10.012;2022-09-09T04:25:49;33.83;;;23.13;;
3629;SDS011;1831;53.626;10.012;2022-09-09T04:28:20;30.57;;;23.57;;
3629;SDS011;1831;53.626;10.012;2022-09-09T04:30:49;30.83;;;24.00;;
3629;SDS011;1831;53.626;10.012;2022-09-09T04:33:17;28.83;;;23.27;;
3629;SDS011;1831;53.626;10.012;2022-09-09T04:35:45;27.80;;;23.60;;
3629;SDS011;1831;53.626;10.012;2022-09-09T04:38:13;28.07;;;22.97;;
3629;SDS011;1831;53.626;10.012;2022-09-09T04:40:41;30.23;;;22.70;;
3629;SDS011;1831;53.626;10.012;2022-09-09T04:43:09;29.37;;;23.20;;
3629;SDS011;1831;53.626;10.012;2022-09-09T04:45:37;28.50;;;22.10;;
3629;SDS011;1831;53.626;10.012;2022-09-09T04:48:05;28.00;;;22.53;;
3629;SDS011;1831;53.626;10.012;2022-09-09T04:50:32;28.70;;;21.47;;
3629;SDS011;1831;53.626;10.012;2022-09-09T04:52:59;29.07;;;21.77;;
3629;SDS011;1831;53.626;10.012;2022-09-09T04:55:27;25.77;;;21.13;;
3629;SDS011;1831;53.626;10.012;2022-09-09T04:57:55;28.47;;;20.50;;
3629;SDS011;1831;53.626;10.012;2022-09-09T05:00:22;27.10;;;21.90;;
3629;SDS011;1831;53.626;10.012;2022-09-09T05:02:51;25.37;;;20.77;;
3629;SDS011;1831;53.626;10.012;2022-09-09T05:05:17;24.60;;;21.13;;
3629;SDS011;1831;53.626;10.012;2022-09-09T05:07:44;20.77;;;18.00;;
3629;SDS011;1831;53.626;10.012;2022-09-09T05:10:12;22.40;;;18.77;;
3629;SDS011;1831;53.626;10.012;2022-09-09T05:12:43;22.43;;;18.77;;
3629;SDS011;1831;53.626;10.012;2022-09-09T05:15:17;20.83;;;16.83;;
3629;SDS011;1831;53.626;10.012;2022-09-09T05:17:45;21.50;;;17.37;;
3629;SDS011;1831;53.626;10.012;2022-09-09T05:20:14;17.43;;;15.53;;
3629;SDS011;1831;53.626;10.012;2022-09-09T05:22:41;17.60;;;15.70;;
3629;SDS011;1831;53.626;10.012;2022-09-09T05:25:08;17.77;;;15.23;;
3629;SDS011;1831;53.626;10.012;2022-09-09T05:27:35;18.00;;;15.13;;
3629;SDS011;1831;53.626;10.012;2022-09-09T05:30:03;20.53;;;14.40;;
3629;SDS011;1831;53.626;10.012;2022-09-09T05:32:30;15.87;;;13.87;;
3629;SDS011;1831;53.626;10.012;2022-09-09T05:34:59;19.27;;;13.93;;
3629;SDS011;1831;53.626;10.012;2022-09-09T05:37:27;19.30;;;15.13;;
3629;SDS011;1831;53.626;10.012;2022-09-09T05:39:55;17.47;;;14.77;;
3629;SDS011;1831;53.626;10.012;2022-09-09T05:42:22;19.97;;;14.90;;
3629;SDS011;1831;53.626;10.012;2022-09-09T05:44:49;16.40;;;13.97;;
3629;SDS011;1831;53.626;10.012;2022-09-09T05:47:19;17.00;;;13.97;;
3629;SDS011;1831;53.626;10.012;2022-09-09T05:49:46;15.53;;;13.70;;
3629;SDS011;1831;53.626;10.012;2022-09-09T05:52:13;20.60;;;15.73;;
3629;SDS011;1831;53.626;10.012;2022-09-09T05:54:42;14.70;;;13.17;;
3629;SDS011;1831;53.626;10.012;2022-09-09T05:57:09;16.03;;;14.33;;
3629;SDS011;1831;53.626;10.012;2022-09-09T05:59:36;18.63;;;14.50;;
3629;SDS011;1831;53.626;10.012;2022-09-09T06:02:03;16.33;;;12.97;;
3629;SDS011;1831;53.626;10.012;2022-09-09T06:04:30;15.70;;;12.00;;
3629;SDS011;1831;53.626;10.012;2022-09-09T06:06:57;15.07;;;13.03;;
3629;SDS011;1831;53.626;10.012;2022-09-09T06:09:24;15.10;;;12.33;;
3629;SDS011;1831;53.626;10.012;2022-09-09T06:11:53;15.47;;;12.90;;
3629;SDS011;1831;53.626;10.012;2022-09-09T06:14:20;14.60;;;11.00;;
3629;SDS011;1831;53.626;10.012;2022-09-09T06:16:47;14.47;;;12.10;;
3629;SDS011;1831;53.626;10.012;2022-09-09T06:19:14;15.43;;;12.30;;
3629;SDS011;1831;53.626;10.012;2022-09-09T06:21:41;16.00;;;12.07;;
3629;SDS011;1831;53.626;10.012;2022-09-09T06:24:09;15.33;;;13.13;;
3629;SDS011;1831;53.626;10.012;2022-09-09T06:26:39;17.43;;;12.17;;
3629;SDS011;1831;53.626;10.012;2022-09-09T06:29:08;15.00;;;12.37;;
3629;SDS011;1831;53.626;10.012;2022-09-09T06:31:36;12.63;;;11.33;;
3629;SDS011;1831;53.626;10.012;2022-09-09T06:34:04;15.17;;;12.10;;
3629;SDS011;1831;53.626;10.012;2022-09-09T06:36:33;15.30;;;11.77;;
3629;SDS011;1831;53.626;10.012;2022-09-09T06:39:01;16.43;;;12.30;;
3629;SDS011;1831;53.626;10.012;2022-09-09T06:41:29;15.47;;;10.77;;
3629;SDS011;1831;53.626;10.012;2022-09-09T06:43:58;15.40;;;11.00;;
3629;SDS011;1831;53.626;10.012;2022-09-09T06:46:27;14.27;;;11.27;;
3629;SDS011;1831;53.626;10.012;2022-09-09T06:48:56;15.03;;;11.20;;
3629;SDS011;1831;53.626;10.012;2022-09-09T06:51:25;15.50;;;10.93;;
3629;SDS011;1831;53.626;10.012;2022-09-09T06:53:53;13.57;;;11.97;;
3629;SDS011;1831;53.626;10.012;2022-09-09T06:56:22;14.50;;;10.67;;
3629;SDS011;1831;53.626;10.012;2022-09-09T06:58:51;19.57;;;9.83;;
3629;SDS011;1831;53.626;10.012;2022-09-09T07:01:23;13.23;;;9.60;;
3629;SDS011;1831;53.626;10.012;2022-09-09T07:03:53;11.53;;;10.27;;
3629;SDS011;1831;53.626;10.012;2022-09-09T07:06:21;10.70;;;9.03;;
3629;SDS011;1831;53.626;10.012;2022-09-09T07:08:50;13.27;;;9.53;;
3629;SDS011;1831;53.626;10.012;2022-09-09T07:11:18;15.37;;;9.53;;
3629;SDS011;1831;53.626;10.012;2022-09-09T07:13:45;16.40;;;9.80;;
3629;SDS011;1831;53.626;10.012;2022-09-09T07:16:13;13.67;;;10.53;;
3629;SDS011;1831;53.626;10.012;2022-09-09T07:18:42;14.33;;;11.63;;
3629;SDS011;1831;53.626;10.012;2022-09-09T07:21:10;12.93;;;10.73;;
3629;SDS011;1831;53.626;10.012;2022-09-09T07:23:39;16.13;;;10.17;;
3629;SDS011;1831;53.626;10.012;2022-09-09T07:26:07;10.80;;;8.77;;
3629;SDS011;1831;53.626;10.012;2022-09-09T07:28:35;10.87;;;9.27;;
3629;SDS011;1831;53.626;10.012;2022-09-09T07:31:04;15.93;;;8.93;;
3629;SDS011;1831;53.626;10.012;2022-09-09T07:33:31;10.90;;;9.37;;
3629;SDS011;1831;53.626;10.012;2022-09-09T07:36:04;13.23;;;9.73;;
3629;SDS011;1831;53.626;10.012;2022-09-09T07:38:37;11.17;;;9.97;;
3629;SDS011;1831;53.626;10.012;2022-09-09T07:41:05;12.00;;;9.20;;
3629;SDS011;1831;53.626;10.012;2022-09-09T07:43:36;11.20;;;9.83;;
3629;SDS011;1831;53.626;10.012;2022-09-09T07:46:03;14.10;;;10.00;;
3629;SDS011;1831;53.626;10.012;2022-09-09T07:48:31;13.33;;;10.07;;
3629;SDS011;1831;53.626;10.012;2022-09-09T07:51:05;11.87;;;8.70;;
3629;SDS011;1831;53.626;10.012;2022-09-09T07:53:34;11.90;;;8.83;;
3629;SDS011;1831;53.626;10.012;2022-09-09T07:56:03;13.30;;;8.60;;
3629;SDS011;1831;53.626;10.012;2022-09-09T07:58:32;10.80;;;9.30;;
3629;SDS011;1831;53.626;10.012;2022-09-09T08:00:59;11.60;;;7.50;;
3629;SDS011;1831;53.626;10.012;2022-09-09T08:03:25;9.77;;;7.80;;
3629;SDS011;1831;53.626;10.012;2022-09-09T08:05:52;10.70;;;7.90;;
3629;SDS011;1831;53.626;10.012;2022-09-09T08:08:26;13.37;;;9.60;;
3629;SDS011;1831;53.626;10.012;2022-09-09T08:10:54;14.90;;;9.40;;
3629;SDS011;1831;53.626;10.012;2022-09-09T08:13:28;9.97;;;7.87;;
3629;SDS011;1831;53.626;10.012;2022-09-09T08:16:02;12.10;;;7.67;;
3629;SDS011;1831;53.626;10.012;2022-09-09T08:18:31;14.30;;;8.80;;
3629;SDS011;1831;53.626;10.012;2022-09-09T08:20:58;12.57;;;8.30;;
3629;SDS011;1831;53.626;10.012;2022-09-09T08:23:30;8.93;;;7.57;;
3629;SDS011;1831;53.626;10.012;2022-09-09T08:26:03;9.37;;;7.40;;
3629;SDS011;1831;53.626;10.012;2022-09-09T08:28:36;10.27;;;7.57;;
3629;SDS011;1831;53.626;10.012;2022-09-09T08:31:12;9.73;;;8.20;;
3629;SDS011;1831;53.626;10.012;2022-09-09T08:33:41;13.60;;;7.20;;
3629;SDS011;1831;53.626;10.012;2022-09-09T08:36:11;11.10;;;7.33;;
3629;SDS011;1831;53.626;10.012;2022-09-09T08:38:40;12.13;;;7.97;;
3629;SDS011;1831;53.626;10.012;2022-09-09T08:41:14;10.43;;;8.10;;
3629;SDS011;1831;53.626;10.012;2022-09-09T08:44:01;10.70;;;8.40;;
3629;SDS011;1831;53.626;10.012;2022-09-09T08:46:34;9.70;;;7.23;;
3629;SDS011;1831;53.626;10.012;2022-09-09T08:49:14;10.83;;;7.63;;
3629;SDS011;1831;53.626;10.012;2022-09-09T08:51:50;10.53;;;6.90;;
3629;SDS011;1831;53.626;10.012;2022-09-09T08:54:21;9.77;;;7.17;;
3629;SDS011;1831;53.626;10.012;2022-09-09T08:56:49;14.33;;;7.53;;
3629;SDS011;1831;53.626;10.012;2022-09-09T08:59:17;9.13;;;6.53;;
3629;SDS011;1831;53.626;10.012;2022-09-09T09:01:54;14.80;;;7.50;;
3629;SDS011;1831;53.626;10.012;2022-09-09T09:04:32;8.27;;;6.90;;
3629;SDS011;1831;53.626;10.012;2022-09-09T09:07:11;9.47;;;7.33;;
3629;SDS011;1831;53.626;10.012;2022-09-09T09:09:50;10.90;;;7.33;;
3629;SDS011;1831;53.626;10.012;2022-09-09T09:12:25;10.13;;;8.03;;
3629;SDS011;1831;53.626;10.012;2022-09-09T09:14:55;8.60;;;6.60;;
3629;SDS011;1831;53.626;10.012;2022-09-09T09:17:24;8.50;;;6.67;;
3629;SDS011;1831;53.626;10.012;2022-09-09T09:19:55;9.60;;;7.17;;
3629;SDS011;1831;53.626;10.012;2022-09-09T09:22:22;12.97;;;7.43;;
3629;SDS011;1831;53.626;10.012;2022-09-09T09:24:56;9.37;;;6.70;;
3629;SDS011;1831;53.626;10.012;2022-09-09T09:27:39;7.50;;;5.50;;
3629;SDS011;1831;53.626;10.012;2022-09-09T09:30:13;12.23;;;7.23;;
3629;SDS011;1831;53.626;10.012;2022-09-09T09:32:43;8.07;;;5.80;;
3629;SDS011;1831;53.626;10.012;2022-09-09T09:35:16;8.13;;;6.70;;
3629;SDS011;1831;53.626;10.012;2022-09-09T09:37:43;11.87;;;6.83;;
3629;SDS011;1831;53.626;10.012;2022-09-09T09:40:10;8.60;;;5.60;;
3629;SDS011;1831;53.626;10.012;2022-09-09T09:42:48;7.00;;;4.90;;
3629;SDS011;1831;53.626;10.012;2022-09-09T09:45:20;6.17;;;4.60;;
3629;SDS011;1831;53.626;10.012;2022-09-09T09:47:57;9.00;;;6.33;;
3629;SDS011;1831;53.626;10.012;2022-09-09T09:50:25;6.90;;;5.27;;
3629;SDS011;1831;53.626;10.012;2022-09-09T09:52:55;8.73;;;6.50;;
3629;SDS011;1831;53.626;10.012;2022-09-09T09:55:23;7.80;;;5.73;;
3629;SDS011;1831;53.626;10.012;2022-09-09T09:57:52;8.80;;;5.47;;
3629;SDS011;1831;53.626;10.012;2022-09-09T10:00:19;10.13;;;4.60;;
3629;SDS011;1831;53.626;10.012;2022-09-09T10:02:49;6.60;;;4.63;;
3629;SDS011;1831;53.626;10.012;2022-09-09T10:05:18;7.53;;;4.40;;
3629;SDS011;1831;53.626;10.012;2022-09-09T10:07:46;5.83;;;3.80;;
3629;SDS011;1831;53.626;10.012;2022-09-09T10:10:28;7.90;;;4.37;;
3629;SDS011;1831;53.626;10.012;2022-09-09T10:13:09;9.37;;;3.90;;
3629;SDS011;1831;53.626;10.012;2022-09-09T10:15:41;6.73;;;4.10;;
3629;SDS011;1831;53.626;10.012;2022-09-09T10:18:20;9.30;;;4.60;;
3629;SDS011;1831;53.626;10.012;2022-09-09T10:21:02;8.07;;;3.87;;
3629;SDS011;1831;53.626;10.012;2022-09-09T10:23:41;8.13;;;4.10;;
3629;SDS011;1831;53.626;10.012;2022-09-09T10:26:21;5.10;;;3.10;;
3629;SDS011;1831;53.626;10.012;2022-09-09T10:29:06;7.60;;;4.87;;
3629;SDS011;1831;53.626;10.012;2022-09-09T10:31:45;5.40;;;3.60;;
3629;SDS011;1831;53.626;10.012;2022-09-09T10:34:24;6.40;;;3.50;;
3629;SDS011;1831;53.626;10.012;2022-09-09T10:37:11;6.23;;;3.03;;
3629;SDS011;1831;53.626;10.012;2022-09-09T10:39:47;4.43;;;2.90;;
3629;SDS011;1831;53.626;10.012;2022-09-09T10:42:17;5.07;;;2.30;;
3629;SDS011;1831;53.626;10.012;2022-09-09T10:44:56;6.97;;;2.73;;
3629;SDS011;1831;53.626;10.012;2022-09-09T10:50:29;6.90;;;2.93;;
3629;SDS011;1831;53.626;10.012;2022-09-09T10:53:19;4.47;;;2.90;;
3629;SDS011;1831;53.626;10.012;2022-09-09T10:55:57;5.70;;;2.83;;
3629;SDS011;1831;53.626;10.012;2022-09-09T10:58:31;5.03;;;2.60;;
3629;SDS011;1831;53.626;10.012;2022-09-09T11:01:05;7.27;;;3.70;;
3629;SDS011;1831;53.626;10.012;2022-09-09T11:03:36;7.10;;;3.63;;
3629;SDS011;1831;53.626;10.012;2022-09-09T11:06:09;5.57;;;3.20;;
3629;SDS011;1831;53.626;10.012;2022-09-09T11:08:39;7.17;;;3.40;;
3629;SDS011;1831;53.626;10.012;2022-09-09T11:11:07;5.90;;;4.07;;
3629;SDS011;1831;53.626;10.012;2022-09-09T11:13:42;4.97;;;2.83;;
3629;SDS011;1831;53.626;10.012;2022-09-09T11:16:19;7.47;;;3.90;;
3629;SDS011;1831;53.626;10.012;2022-09-09T11:18:50;4.90;;;2.73;;
3629;SDS011;1831;53.626;10.012;2022-09-09T11:21:26;6.43;;;2.80;;
3629;SDS011;1831;53.626;10.012;2022-09-09T11:23:57;4.70;;;2.77;;
3629;SDS011;1831;53.626;10.012;2022-09-09T11:26:30;6.10;;;2.93;;
3629;SDS011;1831;53.626;10.012;2022-09-09T11:29:06;3.80;;;1.80;;
3629;SDS011;1831;53.626;10.012;2022-09-09T11:31:55;5.57;;;2.73;;
3629;SDS011;1831;53.626;10.012;2022-09-09T11:34:35;5.63;;;2.40;;
3629;SDS011;1831;53.626;10.012;2022-09-09T11:37:22;4.73;;;2.53;;
3629;SDS011;1831;53.626;10.012;2022-09-09T11:40:14;4.90;;;3.07;;
3629;SDS011;1831;53.626;10.012;2022-09-09T11:42:45;7.40;;;2.90;;
3629;SDS011;1831;53.626;10.012;2022-09-09T11:45:21;5.27;;;2.50;;
3629;SDS011;1831;53.626;10.012;2022-09-09T11:47:52;8.23;;;5.83;;
3629;SDS011;1831;53.626;10.012;2022-09-09T11:50:30;10.07;;;6.13;;
3629;SDS011;1831;53.626;10.012;2022-09-09T11:53:03;5.67;;;3.10;;
3629;SDS011;1831;53.626;10.012;2022-09-09T11:55:59;4.40;;;3.10;;
3629;SDS011;1831;53.626;10.012;2022-09-09T11:58:36;7.07;;;3.90;;
3629;SDS011;1831;53.626;10.012;2022-09-09T12:01:28;9.57;;;3.07;;
3629;SDS011;1831;53.626;10.012;2022-09-09T12:06:53;6.50;;;3.00;;
3629;SDS011;1831;53.626;10.012;2022-09-09T12:09:25;5.80;;;3.37;;
3629;SDS011;1831;53.626;10.012;2022-09-09T12:12:20;6.83;;;3.20;;
3629;SDS011;1831;53.626;10.012;2022-09-09T12:17:54;8.63;;;3.27;;
3629;SDS011;1831;53.626;10.012;2022-09-09T12:20:26;5.17;;;2.80;;
3629;SDS011;1831;53.626;10.012;2022-09-09T12:23:02;4.97;;;2.30;;
3629;SDS011;1831;53.626;10.012;2022-09-09T12:25:57;6.43;;;2.97;;
3629;SDS011;1831;53.626;10.012;2022-09-09T12:28:36;5.57;;;2.70;;
3629;SDS011;1831;53.626;10.012;2022-09-09T12:31:12;4.53;;;3.57;;
3629;SDS011;1831;53.626;10.012;2022-09-09T12:33:44;4.10;;;3.00;;
3629;SDS011;1831;53.626;10.012;2022-09-09T12:36:15;7.47;;;2.90;;
3629;SDS011;1831;53.626;10.012;2022-09-09T12:38:45;6.67;;;3.20;;
3629;SDS011;1831;53.626;10.012;2022-09-09T12:41:19;7.23;;;3.47;;
3629;SDS011;1831;53.626;10.012;2022-09-09T12:43:47;6.30;;;3.43;;
3629;SDS011;1831;53.626;10.012;2022-09-09T12:46:22;7.00;;;3.20;;
3629;SDS011;1831;53.626;10.012;2022-09-09T12:48:55;6.27;;;2.70;;
3629;SDS011;1831;53.626;10.012;2022-09-09T12:51:25;4.57;;;3.00;;
3629;SDS011;1831;53.626;10.012;2022-09-09T12:53:55;7.43;;;3.50;;
3629;SDS011;1831;53.626;10.012;2022-09-09T12:56:22;10.50;;;3.50;;
3629;SDS011;1831;53.626;10.012;2022-09-09T12:58:53;5.77;;;3.10;;
3629;SDS011;1831;53.626;10.012;2022-09-09T13:01:22;4.93;;;3.60;;
3629;SDS011;1831;53.626;10.012;2022-09-09T13:03:51;7.73;;;3.67;;
3629;SDS011;1831;53.626;10.012;2022-09-09T13:06:20;8.83;;;5.17;;
3629;SDS011;1831;53.626;10.012;2022-09-09T13:08:50;6.73;;;4.87;;
3629;SDS011;1831;53.626;10.012;2022-09-09T13:11:19;6.77;;;5.00;;
3629;SDS011;1831;53.626;10.012;2022-09-09T13:13:50;8.90;;;6.63;;
3629;SDS011;1831;53.626;10.012;2022-09-09T13:16:19;8.17;;;4.93;;
3629;SDS011;1831;53.626;10.012;2022-09-09T13:18:49;12.47;;;8.93;;
3629;SDS011;1831;53.626;10.012;2022-09-09T13:21:17;10.77;;;6.63;;
3629;SDS011;1831;53.626;10.012;2022-09-09T13:23:48;12.43;;;5.03;;
3629;SDS011;1831;53.626;10.012;2022-09-09T13:26:21;8.10;;;5.90;;
3629;SDS011;1831;53.626;10.012;2022-09-09T13:28:50;9.47;;;6.30;;
3629;SDS011;1831;53.626;10.012;2022-09-09T13:31:20;13.37;;;6.63;;
3629;SDS011;1831;53.626;10.012;2022-09-09T13:33:49;9.43;;;5.80;;
3629;SDS011;1831;53.626;10.012;2022-09-09T13:36:18;9.13;;;8.23;;
3629;SDS011;1831;53.626;10.012;2022-09-09T13:38:56;13.00;;;10.53;;
3629;SDS011;1831;53.626;10.012;2022-09-09T13:41:26;11.43;;;7.70;;
3629;SDS011;1831;53.626;10.012;2022-09-09T13:43:56;11.07;;;6.63;;
3629;SDS011;1831;53.626;10.012;2022-09-09T13:46:25;14.00;;;7.53;;
3629;SDS011;1831;53.626;10.012;2022-09-09T13:48:55;12.20;;;7.40;;
3629;SDS011;1831;53.626;10.012;2022-09-09T13:51:26;7.60;;;6.47;;
3629;SDS011;1831;53.626;10.012;2022-09-09T13:53:59;8.53;;;6.90;;
3629;SDS011;1831;53.626;10.012;2022-09-09T13:56:26;9.17;;;6.80;;
3629;SDS011;1831;53.626;10.012;2022-09-09T13:58:54;8.40;;;6.20;;
3629;SDS011;1831;53.626;10.012;2022-09-09T14:01:22;9.20;;;6.73;;
3629;SDS011;1831;53.626;10.012;2022-09-09T14:03:49;7.07;;;5.27;;
3629;SDS011;1831;53.626;10.012;2022-09-09T14:06:16;8.90;;;5.10;;
3629;SDS011;1831;53.626;10.012;2022-09-09T14:08:43;11.40;;;6.63;;
3629;SDS011;1831;53.626;10.012;2022-09-09T14:11:12;8.63;;;6.70;;
3629;SDS011;1831;53.626;10.012;2022-09-09T14:13:40;7.00;;;5.97;;
3629;SDS011;1831;53.626;10.012;2022-09-09T14:16:07;7.50;;;5.40;;
3629;SDS011;1831;53.626;10.012;2022-09-09T14:18:34;11.50;;;5.70;;
3629;SDS011;1831;53.626;10.012;2022-09-09T14:21:02;6.87;;;5.40;;
3629;SDS011;1831;53.626;10.012;2022-09-09T14:23:30;8.77;;;6.03;;
3629;SDS011;1831;53.626;10.012;2022-09-09T14:25:58;9.83;;;5.93;;
3629;SDS011;1831;53.626;10.012;2022-09-09T14:28:26;11.47;;;6.00;;
3629;SDS011;1831;53.626;10.012;2022-09-09T14:30:53;8.30;;;6.13;;
3629;SDS011;1831;53.626;10.012;2022-09-09T14:33:21;9.63;;;5.90;;
3629;SDS011;1831;53.626;10.012;2022-09-09T14:35:54;12.50;;;7.93;;
3629;SDS011;1831;53.626;10.012;2022-09-09T14:38:22;9.23;;;6.10;;
3629;SDS011;1831;53.626;10.012;2022-09-09T14:40:48;9.73;;;6.73;;
3629;SDS011;1831;53.626;10.012;2022-09-09T14:43:15;9.37;;;6.70;;
3629;SDS011;1831;53.626;10.012;2022-09-09T14:45:43;8.57;;;6.10;;
3629;SDS011;1831;53.626;10.012;2022-09-09T14:48:10;11.30;;;6.40;;
3629;SDS011;1831;53.626;10.012;2022-09-09T14:50:38;10.10;;;6.60;;
3629;SDS011;1831;53.626;10.012;2022-09-09T14:53:05;6.87;;;6.17;;
3629;SDS011;1831;53.626;10.012;2022-09-09T14:55:33;8.20;;;6.83;;
3629;SDS011;1831;53.626;10.012;2022-09-09T14:58:00;13.83;;;11.83;;
3629;SDS011;1831;53.626;10.012;2022-09-09T15:00:27;8.83;;;7.07;;
3629;SDS011;1831;53.626;10.012;2022-09-09T15:02:55;8.10;;;6.53;;
3629;SDS011;1831;53.626;10.012;2022-09-09T15:05:22;8.07;;;5.47;;
3629;SDS011;1831;53.626;10.012;2022-09-09T15:07:50;7.40;;;5.20;;
3629;SDS011;1831;53.626;10.012;2022-09-09T15:10:17;7.03;;;4.50;;
3629;SDS011;1831;53.626;10.012;2022-09-09T15:12:44;5.83;;;4.40;;
3629;SDS011;1831;53.626;10.012;2022-09-09T15:15:12;8.27;;;4.17;;
3629;SDS011;1831;53.626;10.012;2022-09-09T15:17:38;6.13;;;4.17;;